Time;durP1;ratioP1;P1;durP2;ratioP2;P2;SDS_P1;SDS_P2;PMS_P1;PMS_P2;Temp;Humidity;BMP_temperature;BMP_pressure;BME280_temperature;BME280_humidity;BME280_pressure;Samples;Min_cycle;Max_cycle;Signal;HPM_P1;HPM_P2
2023/01/07 00:01:41;;;;;;;4.78;2.60;;;;;;;;;;5051733;28;20040;-62
2023/01/07 00:04:10;;;;;;;5.15;2.75;;;;;;;;;;5040629;28;20032;-61
2023/01/07 00:06:38;;;;;;;5.80;3.13;;;;;;;;;;5027934;28;20036;-62
2023/01/07 00:09:05;;;;;;;4.88;2.58;;;;;;;;;;5044610;28;20029;-61
2023/01/07 00:11:36;;;;;;;4.43;2.60;;;;;;;;;;5058121;28;20043;-61
2023/01/07 00:14:03;;;;;;;4.15;2.53;;;;;;;;;;5053250;28;20445;-61
2023/01/07 00:16:30;;;;;;;4.40;2.30;;;;;;;;;;5051709;28;20401;-61
2023/01/07 00:18:58;;;;;;;4.93;2.40;;;;;;;;;;5052318;28;20056;-62
2023/01/07 00:21:25;;;;;;;5.32;2.45;;;;;;;;;;5050614;28;20036;-62
2023/01/07 00:23:55;;;;;;;2.95;2.00;;;;;;;;;;5048092;28;20033;-62
2023/01/07 00:26:22;;;;;;;2.67;2.00;;;;;;;;;;5044964;28;20047;-62
2023/01/07 00:28:50;;;;;;;3.90;2.60;;;;;;;;;;5072176;28;20048;-62
2023/01/07 00:31:23;;;;;;;3.40;2.25;;;;;;;;;;5068382;28;20036;-62
2023/01/07 00:36:23;;;;;;;4.97;2.70;;;;;;;;;;5056359;28;20101;-61
2023/01/07 00:38:56;;;;;;;5.22;2.80;;;;;;;;;;5039548;28;20115;-60
2023/01/07 00:41:22;;;;;;;5.47;2.78;;;;;;;;;;5072512;28;20493;-59
2023/01/07 00:43:47;;;;;;;5.47;2.65;;;;;;;;;;5068977;28;20102;-59
2023/01/07 00:46:14;;;;;;;3.90;2.33;;;;;;;;;;5072604;28;20031;-59
2023/01/07 00:48:39;;;;;;;4.55;2.30;;;;;;;;;;5061896;28;20033;-62
2023/01/07 00:51:05;;;;;;;4.85;2.30;;;;;;;;;;5052159;28;20048;-59
2023/01/07 00:53:30;;;;;;;4.78;2.58;;;;;;;;;;5037867;28;20033;-59
2023/01/07 00:55:56;;;;;;;4.65;2.40;;;;;;;;;;5042229;28;20461;-59
2023/01/07 00:58:23;;;;;;;7.20;2.35;;;;;;;;;;5067126;28;20101;-59
2023/01/07 01:00:52;;;;;;;3.35;2.10;;;;;;;;;;5080988;28;20036;-59
2023/01/07 01:03:18;;;;;;;3.97;2.20;;;;;;;;;;5072030;28;20051;-60
2023/01/07 01:05:43;;;;;;;4.47;2.15;;;;;;;;;;5052643;28;20378;-61
2023/01/07 01:08:09;;;;;;;3.53;1.90;;;;;;;;;;5072205;28;20032;-59
2023/01/07 01:10:35;;;;;;;3.40;1.90;;;;;;;;;;5071261;28;20024;-60
2023/01/07 01:13:01;;;;;;;2.72;1.80;;;;;;;;;;5070407;28;20020;-59
2023/01/07 01:15:26;;;;;;;4.90;2.00;;;;;;;;;;5089837;28;20035;-60
2023/01/07 01:17:52;;;;;;;4.50;1.92;;;;;;;;;;5076288;28;20028;-60
2023/01/07 01:20:18;;;;;;;2.60;1.73;;;;;;;;;;5092424;28;20028;-59
2023/01/07 01:22:44;;;;;;;3.03;1.90;;;;;;;;;;5076052;28;20035;-61
2023/01/07 01:25:10;;;;;;;2.83;1.73;;;;;;;;;;5072414;28;20055;-59
2023/01/07 01:27:36;;;;;;;2.78;1.70;;;;;;;;;;5069694;28;20508;-60
2023/01/07 01:30:02;;;;;;;2.50;1.85;;;;;;;;;;5071144;28;20024;-59
2023/01/07 01:32:28;;;;;;;3.33;1.70;;;;;;;;;;5069819;28;20457;-60
2023/01/07 01:34:53;;;;;;;3.28;2.00;;;;;;;;;;5058175;28;20108;-60
2023/01/07 01:37:19;;;;;;;4.22;1.73;;;;;;;;;;5051547;28;20032;-59
2023/01/07 01:39:45;;;;;;;2.13;1.58;;;;;;;;;;5070041;28;20068;-60
2023/01/07 01:42:16;;;;;;;2.38;1.80;;;;;;;;;;5067031;28;20396;-59
2023/01/07 01:44:48;;;;;;;2.28;1.55;;;;;;;;;;5051476;28;20132;-61
2023/01/07 01:47:39;;;;;;;3.75;1.80;;;;;;;;;;5070676;28;20173;-59
2023/01/07 01:50:23;;;;;;;4.38;1.80;;;;;;;;;;5081872;28;20244;-59
2023/01/07 01:53:03;;;;;;;2.33;1.60;;;;;;;;;;5072420;28;20100;-59
2023/01/07 01:55:34;;;;;;;2.55;1.80;;;;;;;;;;5071681;28;20067;-61
2023/01/07 01:58:05;;;;;;;4.97;1.70;;;;;;;;;;5069227;28;20382;-61
2023/01/07 02:00:31;;;;;;;3.63;1.75;;;;;;;;;;5056391;28;20048;-59
2023/01/07 02:02:58;;;;;;;3.80;1.90;;;;;;;;;;5066779;28;20107;-59
2023/01/07 02:05:26;;;;;;;4.68;2.33;;;;;;;;;;5069747;28;20115;-61
2023/01/07 02:07:51;;;;;;;5.63;2.45;;;;;;;;;;5068848;28;20485;-61
2023/01/07 02:10:21;;;;;;;3.10;2.00;;;;;;;;;;5072192;28;20036;-59
2023/01/07 02:13:16;;;;;;;2.88;2.00;;;;;;;;;;5054533;28;20052;-60
2023/01/07 02:16:08;;;;;;;4.10;1.67;;;;;;;;;;5065531;28;20087;-61
2023/01/07 02:18:42;;;;;;;5.05;1.85;;;;;;;;;;5055675;28;20484;-60
2023/01/07 02:21:26;;;;;;;2.30;1.50;;;;;;;;;;5078895;28;20050;-60
2023/01/07 02:24:34;;;;;;;2.05;1.52;;;;;;;;;;5077775;28;20036;-59
2023/01/07 02:27:15;;;;;;;3.25;1.67;;;;;;;;;;5090549;28;20487;-61
2023/01/07 02:30:08;;;;;;;2.30;1.40;;;;;;;;;;5088775;28;20093;-60
2023/01/07 02:32:45;;;;;;;2.03;1.50;;;;;;;;;;5079722;28;20036;-60
2023/01/07 02:35:35;;;;;;;3.70;1.50;;;;;;;;;;5091221;28;20080;-60
2023/01/07 02:38:32;;;;;;;1.73;1.48;;;;;;;;;;5071414;28;20029;-61
2023/01/07 02:41:13;;;;;;;2.17;1.52;;;;;;;;;;5054471;28;20061;-61
2023/01/07 02:43:53;;;;;;;1.58;1.35;;;;;;;;;;5092410;28;20082;-60
2023/01/07 02:46:26;;;;;;;2.42;1.75;;;;;;;;;;5093320;28;20032;-61
2023/01/07 02:48:52;;;;;;;2.53;1.55;;;;;;;;;;5068883;28;20067;-61
2023/01/07 02:51:17;;;;;;;2.05;1.55;;;;;;;;;;5060313;28;20056;-62
2023/01/07 02:53:47;;;;;;;4.03;1.60;;;;;;;;;;5074865;28;20044;-60
2023/01/07 02:56:31;;;;;;;2.58;1.42;;;;;;;;;;5066808;28;20025;-60
2023/01/07 02:59:22;;;;;;;2.00;1.30;;;;;;;;;;5092462;28;20048;-64
2023/01/07 03:02:19;;;;;;;4.35;1.70;;;;;;;;;;5073155;28;20039;-61
2023/01/07 03:05:08;;;;;;;2.65;1.50;;;;;;;;;;5065832;28;20040;-58
2023/01/07 03:08:08;;;;;;;2.65;1.38;;;;;;;;;;5062614;28;20033;-60
2023/01/07 03:10:58;;;;;;;1.98;1.35;;;;;;;;;;5057215;28;20036;-60
2023/01/07 03:13:31;;;;;;;1.55;1.35;;;;;;;;;;5071247;28;20032;-59
2023/01/07 03:16:02;;;;;;;2.53;1.60;;;;;;;;;;5071435;28;20028;-60
2023/01/07 03:18:35;;;;;;;2.35;1.50;;;;;;;;;;5060213;28;20067;-59
2023/01/07 03:21:06;;;;;;;2.45;1.40;;;;;;;;;;5072961;28;20097;-60
2023/01/07 03:23:35;;;;;;;4.15;1.40;;;;;;;;;;5058932;28;20028;-59
2023/01/07 03:26:03;;;;;;;3.40;1.73;;;;;;;;;;5075958;28;20028;-60
2023/01/07 03:28:32;;;;;;;2.92;1.70;;;;;;;;;;5093440;28;20028;-60
2023/01/07 03:30:59;;;;;;;3.20;1.70;;;;;;;;;;5087829;28;20086;-60
2023/01/07 03:33:33;;;;;;;1.90;1.50;;;;;;;;;;5073768;28;20024;-60
2023/01/07 03:36:02;;;;;;;2.33;1.73;;;;;;;;;;5072676;28;20032;-60
2023/01/07 03:38:28;;;;;;;4.70;1.70;;;;;;;;;;5072756;28;20036;-59
2023/01/07 03:40:54;;;;;;;2.38;1.70;;;;;;;;;;5070502;28;20405;-60
2023/01/07 03:43:21;;;;;;;2.55;1.80;;;;;;;;;;5072862;28;20142;-60
2023/01/07 03:45:48;;;;;;;3.55;1.60;;;;;;;;;;5080893;28;20135;-59
2023/01/07 03:48:14;;;;;;;3.42;1.70;;;;;;;;;;5085454;28;20029;-59
2023/01/07 03:50:39;;;;;;;2.00;1.38;;;;;;;;;;5072815;28;20090;-60
2023/01/07 03:53:05;;;;;;;2.15;1.58;;;;;;;;;;5071015;28;20483;-60
2023/01/07 03:55:30;;;;;;;2.35;1.40;;;;;;;;;;5071267;28;20465;-59
2023/01/07 03:57:56;;;;;;;2.15;1.50;;;;;;;;;;5070905;28;20366;-60
2023/01/07 04:00:22;;;;;;;2.20;1.50;;;;;;;;;;5071933;28;20044;-60
2023/01/07 04:02:47;;;;;;;2.70;1.50;;;;;;;;;;5065541;28;20041;-60
2023/01/07 04:05:13;;;;;;;1.90;1.40;;;;;;;;;;5066394;28;20043;-60
2023/01/07 04:07:38;;;;;;;2.90;1.77;;;;;;;;;;5071532;28;20384;-60
2023/01/07 04:10:05;;;;;;;3.15;1.67;;;;;;;;;;5068546;28;20085;-59
2023/01/07 04:12:31;;;;;;;2.78;1.52;;;;;;;;;;5072064;28;20029;-62
2023/01/07 04:14:56;;;;;;;3.72;1.58;;;;;;;;;;5082733;28;20109;-61
2023/01/07 04:17:22;;;;;;;4.15;1.40;;;;;;;;;;5071631;28;20040;-61
2023/01/07 04:19:47;;;;;;;3.20;1.85;;;;;;;;;;5070850;28;20037;-57
2023/01/07 04:22:13;;;;;;;2.17;1.48;;;;;;;;;;5071350;28;20099;-59
2023/01/07 04:24:38;;;;;;;1.60;1.40;;;;;;;;;;5071198;28;20024;-60
2023/01/07 04:27:03;;;;;;;4.88;1.50;;;;;;;;;;5071105;28;20025;-60
2023/01/07 04:29:29;;;;;;;3.17;1.50;;;;;;;;;;5068916;28;20444;-59
2023/01/07 04:31:55;;;;;;;2.08;1.45;;;;;;;;;;5072251;28;20060;-61
2023/01/07 04:34:21;;;;;;;3.05;1.60;;;;;;;;;;5071224;28;20047;-60
2023/01/07 04:36:46;;;;;;;3.80;1.60;;;;;;;;;;5072052;28;20470;-60
2023/01/07 04:39:12;;;;;;;2.03;1.40;;;;;;;;;;5069115;28;20635;-60
2023/01/07 04:41:37;;;;;;;2.70;1.40;;;;;;;;;;5078434;28;20031;-59
2023/01/07 04:44:03;;;;;;;2.22;1.50;;;;;;;;;;5071215;28;20024;-58
2023/01/07 04:46:29;;;;;;;3.28;1.80;;;;;;;;;;5068628;28;20465;-57
2023/01/07 04:48:55;;;;;;;1.75;1.45;;;;;;;;;;5071695;28;20431;-60
2023/01/07 04:51:20;;;;;;;2.42;1.50;;;;;;;;;;5071178;28;20028;-58
2023/01/07 04:53:46;;;;;;;3.13;1.58;;;;;;;;;;5083026;28;20027;-58
2023/01/07 04:56:11;;;;;;;2.38;1.58;;;;;;;;;;5084408;28;20432;-63
2023/01/07 04:58:37;;;;;;;1.80;1.40;;;;;;;;;;5071526;28;20524;-60
2023/01/07 05:01:03;;;;;;;2.95;1.60;;;;;;;;;;5070447;28;20036;-60
2023/01/07 05:03:29;;;;;;;2.35;1.48;;;;;;;;;;5070389;28;20048;-60
2023/01/07 05:05:55;;;;;;;3.90;1.50;;;;;;;;;;5077775;28;20032;-61
2023/01/07 05:08:20;;;;;;;2.45;1.70;;;;;;;;;;5071181;28;20032;-61
2023/01/07 05:10:50;;;;;;;2.63;1.60;;;;;;;;;;5068504;28;20393;-60
2023/01/07 05:13:17;;;;;;;3.45;1.73;;;;;;;;;;5072516;28;20028;-61
2023/01/07 05:15:43;;;;;;;2.17;1.50;;;;;;;;;;5063475;28;20365;-61
2023/01/07 05:18:08;;;;;;;1.83;1.60;;;;;;;;;;5071166;28;20575;-60
2023/01/07 05:20:34;;;;;;;3.45;1.70;;;;;;;;;;5070069;28;20043;-59
2023/01/07 05:22:59;;;;;;;2.30;1.70;;;;;;;;;;5068144;28;20039;-61
2023/01/07 05:25:24;;;;;;;3.20;1.40;;;;;;;;;;5069864;28;20021;-59
2023/01/07 05:27:50;;;;;;;2.20;1.70;;;;;;;;;;5069088;28;20029;-60
2023/01/07 05:30:15;;;;;;;2.47;1.65;;;;;;;;;;5069066;28;20099;-58
2023/01/07 05:32:41;;;;;;;3.75;1.55;;;;;;;;;;5071605;28;20032;-58
2023/01/07 05:35:07;;;;;;;2.90;1.60;;;;;;;;;;5068955;28;20029;-58
2023/01/07 05:37:33;;;;;;;2.63;1.50;;;;;;;;;;5069591;28;20037;-58
2023/01/07 05:39:58;;;;;;;2.40;1.70;;;;;;;;;;5078905;28;20043;-61
2023/01/07 05:42:23;;;;;;;3.33;1.80;;;;;;;;;;5073696;28;20037;-60
2023/01/07 05:44:49;;;;;;;2.03;1.60;;;;;;;;;;5076453;28;20435;-60
2023/01/07 05:47:14;;;;;;;2.10;1.55;;;;;;;;;;5074778;28;20037;-61
2023/01/07 05:49:40;;;;;;;2.55;1.70;;;;;;;;;;5062557;28;20020;-62
2023/01/07 05:52:05;;;;;;;2.58;1.80;;;;;;;;;;5061315;28;20551;-61
2023/01/07 05:54:31;;;;;;;3.38;1.70;;;;;;;;;;5066223;28;20036;-60
2023/01/07 05:56:56;;;;;;;3.70;1.90;;;;;;;;;;5076614;28;20032;-61
2023/01/07 05:59:21;;;;;;;2.35;1.75;;;;;;;;;;5078013;28;20427;-59
2023/01/07 06:01:47;;;;;;;5.05;2.25;;;;;;;;;;5077379;28;20059;-59
2023/01/07 06:04:12;;;;;;;3.17;1.77;;;;;;;;;;5069894;28;20033;-59
2023/01/07 06:06:38;;;;;;;2.65;1.98;;;;;;;;;;5070713;28;20440;-60
2023/01/07 06:09:03;;;;;;;3.53;2.00;;;;;;;;;;5082434;28;20039;-60
2023/01/07 06:11:29;;;;;;;13.40;1.88;;;;;;;;;;5070199;28;20024;-60
2023/01/07 06:13:54;;;;;;;3.58;2.17;;;;;;;;;;5072816;28;20085;-58
2023/01/07 06:16:20;;;;;;;3.20;2.00;;;;;;;;;;5075248;28;20029;-61
2023/01/07 06:18:45;;;;;;;3.83;1.92;;;;;;;;;;5085028;28;20037;-57
2023/01/07 06:21:10;;;;;;;4.40;2.13;;;;;;;;;;5076307;28;20116;-60
2023/01/07 06:23:36;;;;;;;3.75;2.40;;;;;;;;;;5085371;28;20039;-60
2023/01/07 06:26:02;;;;;;;3.55;2.03;;;;;;;;;;5065270;28;20033;-62
2023/01/07 06:28:27;;;;;;;2.60;1.92;;;;;;;;;;5077086;28;20044;-60
2023/01/07 06:30:53;;;;;;;2.80;1.88;;;;;;;;;;5077369;28;20029;-60
2023/01/07 06:33:18;;;;;;;3.38;1.95;;;;;;;;;;5084650;28;20166;-60
2023/01/07 06:35:45;;;;;;;4.25;2.00;;;;;;;;;;5075822;28;20497;-60
2023/01/07 06:38:10;;;;;;;2.80;1.90;;;;;;;;;;5075554;28;20487;-61
2023/01/07 06:40:36;;;;;;;4.00;1.90;;;;;;;;;;5080783;28;20035;-61
2023/01/07 06:43:01;;;;;;;3.63;1.90;;;;;;;;;;5097756;28;20544;-61
2023/01/07 06:45:27;;;;;;;3.17;1.77;;;;;;;;;;5091989;28;20042;-61
2023/01/07 06:47:52;;;;;;;3.63;1.90;;;;;;;;;;5077998;28;20408;-60
2023/01/07 06:50:18;;;;;;;3.03;2.00;;;;;;;;;;5075931;28;20400;-60
2023/01/07 06:52:43;;;;;;;3.28;2.00;;;;;;;;;;5077775;28;20100;-58
2023/01/07 06:55:09;;;;;;;3.50;1.88;;;;;;;;;;5076658;28;20028;-60
2023/01/07 06:57:35;;;;;;;3.17;1.92;;;;;;;;;;5081164;28;20349;-59
2023/01/07 07:00:01;;;;;;;6.30;2.10;;;;;;;;;;5076448;28;20032;-61
2023/01/07 07:02:27;;;;;;;4.57;1.83;;;;;;;;;;5075259;28;20032;-60
2023/01/07 07:04:53;;;;;;;4.28;2.50;;;;;;;;;;5064226;28;20438;-61
2023/01/07 07:07:19;;;;;;;2.47;1.80;;;;;;;;;;5075642;28;20060;-60
2023/01/07 07:09:45;;;;;;;3.70;1.83;;;;;;;;;;5080051;28;20063;-60
2023/01/07 07:12:11;;;;;;;5.40;2.20;;;;;;;;;;5071858;28;20036;-61
2023/01/07 07:14:36;;;;;;;5.35;2.10;;;;;;;;;;5076829;28;20035;-61
2023/01/07 07:17:02;;;;;;;4.53;1.88;;;;;;;;;;5077426;28;20025;-62
2023/01/07 07:19:28;;;;;;;2.83;2.00;;;;;;;;;;5062825;28;20068;-59
2023/01/07 07:21:53;;;;;;;3.47;2.08;;;;;;;;;;5077352;28;20137;-61
2023/01/07 07:24:19;;;;;;;2.60;1.80;;;;;;;;;;5076364;28;20036;-60
2023/01/07 07:26:44;;;;;;;3.83;2.10;;;;;;;;;;5090027;28;20039;-60
2023/01/07 07:29:10;;;;;;;2.50;1.70;;;;;;;;;;5093862;28;20024;-60
2023/01/07 07:31:36;;;;;;;2.33;1.70;;;;;;;;;;5076682;28;20385;-58
2023/01/07 07:34:01;;;;;;;4.13;1.80;;;;;;;;;;5074347;28;20028;-59
2023/01/07 07:36:26;;;;;;;2.88;1.90;;;;;;;;;;5084944;28;20089;-60
2023/01/07 07:38:52;;;;;;;2.85;1.70;;;;;;;;;;5073341;28;20074;-59
2023/01/07 07:41:17;;;;;;;2.28;1.67;;;;;;;;;;5072398;28;20488;-60
2023/01/07 07:43:43;;;;;;;4.20;2.00;;;;;;;;;;5073507;28;20028;-59
2023/01/07 07:46:08;;;;;;;4.13;2.10;;;;;;;;;;5065915;28;20509;-60
2023/01/07 07:48:33;;;;;;;4.60;2.20;;;;;;;;;;5057528;28;20029;-58
2023/01/07 07:50:59;;;;;;;4.45;1.98;;;;;;;;;;5086120;28;20472;-58
2023/01/07 07:53:24;;;;;;;2.92;1.80;;;;;;;;;;5086744;28;20035;-58
2023/01/07 07:55:49;;;;;;;2.63;1.70;;;;;;;;;;5073400;28;20036;-57
2023/01/07 07:58:15;;;;;;;2.30;1.60;;;;;;;;;;5072451;28;20058;-60
2023/01/07 08:00:40;;;;;;;2.40;1.70;;;;;;;;;;5073987;28;20119;-58
2023/01/07 08:03:06;;;;;;;3.20;1.98;;;;;;;;;;5070120;28;20059;-61
2023/01/07 08:05:31;;;;;;;2.60;1.90;;;;;;;;;;5073097;28;20111;-58
2023/01/07 08:07:57;;;;;;;4.30;1.70;;;;;;;;;;5071801;28;20086;-59
2023/01/07 08:10:27;;;;;;;4.55;1.80;;;;;;;;;;5088638;28;20046;-58
2023/01/07 08:12:52;;;;;;;3.35;1.58;;;;;;;;;;5074050;28;20544;-57
2023/01/07 08:15:18;;;;;;;1.85;1.50;;;;;;;;;;5081509;28;20120;-53
2023/01/07 08:17:43;;;;;;;1.95;1.60;;;;;;;;;;5071940;28;20024;-57
2023/01/07 08:20:09;;;;;;;3.45;1.42;;;;;;;;;;5070324;28;21121;-60
2023/01/07 08:22:35;;;;;;;3.75;1.63;;;;;;;;;;5065853;28;20116;-60
2023/01/07 08:25:00;;;;;;;2.00;1.52;;;;;;;;;;5072500;28;20107;-58
2023/01/07 08:27:26;;;;;;;2.13;1.50;;;;;;;;;;5071498;28;20032;-54
2023/01/07 08:29:53;;;;;;;2.17;1.60;;;;;;;;;;5093048;28;20031;-53
2023/01/07 08:32:18;;;;;;;2.35;1.45;;;;;;;;;;5080683;28;20048;-57
2023/01/07 08:34:44;;;;;;;1.75;1.25;;;;;;;;;;5090690;28;20392;-56
2023/01/07 08:37:09;;;;;;;2.72;1.35;;;;;;;;;;5092765;28;20027;-61
2023/01/07 08:39:35;;;;;;;1.92;1.30;;;;;;;;;;5061612;28;20036;-58
2023/01/07 08:42:00;;;;;;;2.70;1.50;;;;;;;;;;5069880;28;20028;-58
2023/01/07 08:44:26;;;;;;;1.85;1.30;;;;;;;;;;5056891;28;20028;-57
2023/01/07 08:46:52;;;;;;;2.03;1.30;;;;;;;;;;5072615;28;20028;-58
2023/01/07 08:49:18;;;;;;;3.50;1.20;;;;;;;;;;5071268;28;20063;-56
2023/01/07 08:51:43;;;;;;;1.58;1.30;;;;;;;;;;5081912;28;20063;-58
2023/01/07 08:54:09;;;;;;;1.23;1.10;;;;;;;;;;5075986;28;20032;-61
2023/01/07 08:56:34;;;;;;;2.95;1.30;;;;;;;;;;5071854;28;20105;-57
2023/01/07 08:58:59;;;;;;;2.75;1.50;;;;;;;;;;5059719;28;20036;-56
2023/01/07 09:01:25;;;;;;;1.92;1.30;;;;;;;;;;5032565;28;20029;-58
2023/01/07 09:03:50;;;;;;;1.73;1.20;;;;;;;;;;5052477;28;20033;-56
2023/01/07 09:06:16;;;;;;;2.28;1.25;;;;;;;;;;5047026;28;20249;-58
2023/01/07 09:08:41;;;;;;;1.50;1.23;;;;;;;;;;5057252;28;20040;-56
2023/01/07 09:11:07;;;;;;;1.58;1.35;;;;;;;;;;5039164;28;20033;-59
2023/01/07 09:13:32;;;;;;;2.80;2.13;;;;;;;;;;5054275;28;20063;-58
2023/01/07 09:15:58;;;;;;;2.72;1.25;;;;;;;;;;5050837;28;20029;-58
2023/01/07 09:18:24;;;;;;;1.38;1.27;;;;;;;;;;5051570;28;20033;-57
2023/01/07 09:20:49;;;;;;;1.70;1.30;;;;;;;;;;5051148;28;20047;-59
2023/01/07 09:23:15;;;;;;;3.10;1.23;;;;;;;;;;5049983;28;20093;-56
2023/01/07 09:25:41;;;;;;;1.60;1.20;;;;;;;;;;5052233;28;20028;-56
2023/01/07 09:28:06;;;;;;;2.13;1.40;;;;;;;;;;5052188;28;20079;-58
2023/01/07 09:30:32;;;;;;;1.77;1.30;;;;;;;;;;5051194;28;20052;-59
2023/01/07 09:32:57;;;;;;;3.85;1.70;;;;;;;;;;5052471;28;20251;-63
2023/01/07 09:35:23;;;;;;;1.75;1.30;;;;;;;;;;5050092;28;20055;-57
2023/01/07 09:37:48;;;;;;;1.75;1.30;;;;;;;;;;5034329;28;20032;-58
2023/01/07 09:40:23;;;;;;;2.10;1.40;;;;;;;;;;5049152;28;20058;-60
2023/01/07 09:43:25;;;;;;;1.73;1.30;;;;;;;;;;5033505;28;20122;-58
2023/01/07 09:45:55;;;;;;;;;;;;;;;;;;5052603;28;20021;-58
2023/01/07 09:48:43;;;;;;;1.55;1.33;;;;;;;;;;5049420;28;20426;-59
2023/01/07 09:51:44;;;;;;;3.03;1.60;;;;;;;;;;5026497;28;20393;-58
2023/01/07 09:54:32;;;;;;;2.88;1.60;;;;;;;;;;5031051;28;20052;-61
2023/01/07 09:56:58;;;;;;;3.13;1.52;;;;;;;;;;5018888;28;20037;-57
2023/01/07 09:59:23;;;;;;;1.30;1.20;;;;;;;;;;5041140;28;20041;-60
2023/01/07 10:02:14;;;;;;;2.50;1.50;;;;;;;;;;5051823;28;20036;-58
2023/01/07 10:04:51;;;;;;;3.67;1.43;;;;;;;;;;5051478;28;20021;-59
2023/01/07 10:07:38;;;;;;;2.50;1.50;;;;;;;;;;5059991;28;20269;-58
2023/01/07 10:10:37;;;;;;;1.83;1.40;;;;;;;;;;5068989;28;20384;-58
2023/01/07 10:13:31;;;;;;;11.65;2.90;;;;;;;;;;5070628;28;20059;-58
2023/01/07 10:16:08;;;;;;;1.20;1.10;;;;;;;;;;5071761;28;20020;-59
2023/01/07 10:19:10;;;;;;;2.45;1.48;;;;;;;;;;5070863;28;20484;-58
2023/01/07 10:21:46;;;;;;;2.95;1.50;;;;;;;;;;5069618;28;20033;-58
2023/01/07 10:24:19;;;;;;;1.85;1.50;;;;;;;;;;5070158;28;20116;-59
2023/01/07 10:26:49;;;;;;;2.85;1.60;;;;;;;;;;5071310;28;20024;-59
2023/01/07 10:29:33;;;;;;;1.83;1.23;;;;;;;;;;5069743;28;20039;-62
2023/01/07 10:32:06;;;;;;;2.13;1.40;;;;;;;;;;5070434;28;20093;-58
2023/01/07 10:34:37;;;;;;;3.08;1.40;;;;;;;;;;5070193;28;20040;-59
2023/01/07 10:37:14;;;;;;;2.15;1.50;;;;;;;;;;5071369;28;20025;-58
2023/01/07 10:40:03;;;;;;;3.05;1.45;;;;;;;;;;5067439;28;21586;-59
2023/01/07 10:42:34;;;;;;;3.00;1.50;;;;;;;;;;5070245;28;20397;-60
2023/01/07 10:45:40;;;;;;;3.28;1.50;;;;;;;;;;5071283;28;20025;-59
2023/01/07 10:48:36;;;;;;;2.50;1.42;;;;;;;;;;5049413;28;20120;-60
2023/01/07 10:51:38;;;;;;;2.42;1.40;;;;;;;;;;5057720;28;20036;-59
2023/01/07 10:54:38;;;;;;;1.95;1.35;;;;;;;;;;5070168;28;20090;-59
2023/01/07 10:57:14;;;;;;;2.65;1.50;;;;;;;;;;5071026;28;20473;-59
2023/01/07 10:59:45;;;;;;;4.25;1.90;;;;;;;;;;5052937;28;20056;-58
2023/01/07 11:02:16;;;;;;;3.65;1.70;;;;;;;;;;5054910;28;20103;-59
2023/01/07 11:04:41;;;;;;;2.45;1.60;;;;;;;;;;5054599;28;20116;-59
2023/01/07 11:07:42;;;;;;;2.80;1.70;;;;;;;;;;5054095;28;20045;-60
2023/01/07 11:10:14;;;;;;;1.70;1.60;;;;;;;;;;5015619;28;20044;-58
2023/01/07 11:12:45;;;;;;;2.53;1.70;;;;;;;;;;5034516;28;20030;-59
2023/01/07 11:15:22;;;;;;;3.17;1.80;;;;;;;;;;5034842;28;20027;-59
2023/01/07 11:18:01;;;;;;;2.78;1.67;;;;;;;;;;5034741;28;20490;-60
2023/01/07 11:20:58;;;;;;;4.15;1.60;;;;;;;;;;5033998;28;20035;-59
2023/01/07 11:23:37;;;;;;;2.88;1.67;;;;;;;;;;5042324;28;20477;-59
2023/01/07 11:26:23;;;;;;;2.75;1.77;;;;;;;;;;5054316;28;20032;-59
2023/01/07 11:28:53;;;;;;;3.78;1.77;;;;;;;;;;5054169;28;20057;-59
2023/01/07 11:31:21;;;;;;;2.67;1.77;;;;;;;;;;5053986;28;20065;-62
2023/01/07 11:33:51;;;;;;;3.95;1.90;;;;;;;;;;5054137;28;20433;-60
2023/01/07 11:36:17;;;;;;;2.53;1.73;;;;;;;;;;5054445;28;20037;-62
2023/01/07 11:38:44;;;;;;;2.80;2.00;;;;;;;;;;5052062;28;20039;-58
2023/01/07 11:41:24;;;;;;;2.50;1.95;;;;;;;;;;5054165;28;20108;-58
2023/01/07 11:43:52;;;;;;;2.17;1.80;;;;;;;;;;5054126;28;20079;-59
2023/01/07 11:46:20;;;;;;;2.30;1.95;;;;;;;;;;5053659;28;20079;-62
2023/01/07 11:49:01;;;;;;;3.35;1.90;;;;;;;;;;5052051;28;20056;-58
2023/01/07 11:51:38;;;;;;;2.88;1.80;;;;;;;;;;5053118;28;20430;-61
2023/01/07 11:54:03;;;;;;;2.72;1.67;;;;;;;;;;5052252;28;20039;-59
2023/01/07 11:56:32;;;;;;;3.42;1.98;;;;;;;;;;5035495;28;20021;-60
2023/01/07 11:59:19;;;;;;;2.60;1.73;;;;;;;;;;5066276;28;20044;-60
2023/01/07 12:01:48;;;;;;;3.05;1.90;;;;;;;;;;5073780;28;20113;-60
2023/01/07 12:04:27;;;;;;;3.10;1.80;;;;;;;;;;5073882;28;20095;-59
2023/01/07 12:07:00;;;;;;;2.05;1.70;;;;;;;;;;5073964;28;20393;-58
2023/01/07 12:09:31;;;;;;;4.00;1.80;;;;;;;;;;5070781;28;20493;-59
2023/01/07 12:12:30;;;;;;;2.97;1.80;;;;;;;;;;5073024;28;20104;-59
2023/01/07 12:14:54;;;;;;;3.30;1.92;;;;;;;;;;5073284;28;20469;-58
2023/01/07 12:17:23;;;;;;;2.90;1.80;;;;;;;;;;5072051;28;20025;-60
2023/01/07 12:20:03;;;;;;;4.07;1.80;;;;;;;;;;5073545;28;20112;-59
2023/01/07 12:22:47;;;;;;;2.75;1.50;;;;;;;;;;5070918;28;20042;-61
2023/01/07 12:25:18;;;;;;;2.65;1.67;;;;;;;;;;5073399;28;20028;-58
2023/01/07 12:27:56;;;;;;;2.10;1.55;;;;;;;;;;5071356;28;20032;-59
2023/01/07 12:30:29;;;;;;;2.08;1.70;;;;;;;;;;5072801;28;20480;-62
2023/01/07 12:33:11;;;;;;;2.40;1.60;;;;;;;;;;5072161;28;20414;-59
2023/01/07 12:35:46;;;;;;;2.00;1.50;;;;;;;;;;5072320;28;20040;-59
2023/01/07 12:38:26;;;;;;;2.90;1.65;;;;;;;;;;5068772;28;20060;-59
2023/01/07 12:40:54;;;;;;;2.88;1.60;;;;;;;;;;5073214;28;20071;-59
2023/01/07 12:43:33;;;;;;;3.63;1.70;;;;;;;;;;5071898;28;20048;-61
2023/01/07 12:46:02;;;;;;;3.03;1.90;;;;;;;;;;5072686;28;20385;-59
2023/01/07 12:48:40;;;;;;;2.80;1.70;;;;;;;;;;5070456;28;20033;-60
2023/01/07 12:51:29;;;;;;;2.75;1.75;;;;;;;;;;5073012;28;20440;-59
2023/01/07 12:54:02;;;;;;;2.33;1.80;;;;;;;;;;5073036;28;20024;-60
2023/01/07 12:56:34;;;;;;;2.15;1.58;;;;;;;;;;5071728;28;20024;-58
2023/01/07 12:59:10;;;;;;;2.70;1.65;;;;;;;;;;5060096;28;20394;-58
2023/01/07 13:01:45;;;;;;;2.17;1.50;;;;;;;;;;5052058;28;20045;-58
2023/01/07 13:04:32;;;;;;;4.03;1.60;;;;;;;;;;5050988;28;20112;-58
2023/01/07 13:07:06;;;;;;;2.40;1.60;;;;;;;;;;5052739;28;20115;-59
2023/01/07 13:09:49;;;;;;;3.28;1.60;;;;;;;;;;5051783;28;20024;-59
2023/01/07 13:12:46;;;;;;;2.63;1.50;;;;;;;;;;5052718;28;20037;-59
2023/01/07 13:15:19;;;;;;;1.40;1.30;;;;;;;;;;5034708;28;20021;-59
2023/01/07 13:17:46;;;;;;;2.30;1.60;;;;;;;;;;5050650;28;20090;-61
2023/01/07 13:20:14;;;;;;;2.53;1.70;;;;;;;;;;5051068;28;20430;-60
2023/01/07 13:22:53;;;;;;;2.03;1.50;;;;;;;;;;5033282;28;20037;-58
2023/01/07 13:25:40;;;;;;;2.10;1.60;;;;;;;;;;5051866;28;20029;-58
2023/01/07 13:28:39;;;;;;;3.22;1.30;;;;;;;;;;5052117;28;20032;-59
2023/01/07 13:31:26;;;;;;;1.83;1.40;;;;;;;;;;5052196;28;20025;-57
2023/01/07 13:34:09;;;;;;;2.05;1.50;;;;;;;;;;5048991;28;20040;-60
2023/01/07 13:36:53;;;;;;;3.92;1.30;;;;;;;;;;5031448;28;20516;-59
2023/01/07 13:39:31;;;;;;;2.25;1.50;;;;;;;;;;5014788;28;20041;-58
2023/01/07 13:42:15;;;;;;;2.35;1.48;;;;;;;;;;5032380;28;20033;-59
2023/01/07 13:45:18;;;;;;;1.60;1.42;;;;;;;;;;5030962;28;20139;-58
2023/01/07 13:47:53;;;;;;;2.80;1.70;;;;;;;;;;5034452;28;20045;-59
2023/01/07 13:50:35;;;;;;;3.33;1.40;;;;;;;;;;5051935;28;20112;-59
2023/01/07 13:53:03;;;;;;;2.80;1.60;;;;;;;;;;5051743;28;20037;-57
2023/01/07 13:55:33;;;;;;;2.13;1.50;;;;;;;;;;5050701;28;20076;-61
2023/01/07 13:57:58;;;;;;;2.33;1.60;;;;;;;;;;5051139;28;20045;-59
2023/01/07 14:00:39;;;;;;;2.53;1.70;;;;;;;;;;5052004;28;20094;-57
2023/01/07 14:03:41;;;;;;;2.88;1.88;;;;;;;;;;5034067;28;20028;-57
2023/01/07 14:06:19;;;;;;;2.15;1.45;;;;;;;;;;5050436;28;20029;-58
2023/01/07 14:08:51;;;;;;;2.90;1.70;;;;;;;;;;5050799;28;20060;-58
2023/01/07 14:11:18;;;;;;;2.50;1.48;;;;;;;;;;5033740;28;20429;-58
2023/01/07 14:13:57;;;;;;;2.40;1.60;;;;;;;;;;5049037;28;20029;-57
2023/01/07 14:16:30;;;;;;;2.30;1.50;;;;;;;;;;5045014;28;20473;-61
2023/01/07 14:19:19;;;;;;;2.28;1.50;;;;;;;;;;5049310;28;20029;-59
2023/01/07 14:21:58;;;;;;;2.63;1.70;;;;;;;;;;5032696;28;20087;-58
2023/01/07 14:25:02;;;;;;;2.50;1.60;;;;;;;;;;5046485;28;20021;-58
2023/01/07 14:28:06;;;;;;;2.30;1.58;;;;;;;;;;5051552;28;20064;-61
2023/01/07 14:30:43;;;;;;;1.85;1.42;;;;;;;;;;5019397;28;20049;-60
2023/01/07 14:33:26;;;;;;;4.30;1.40;;;;;;;;;;5042685;28;20039;-59
2023/01/07 14:35:58;;;;;;;1.70;1.33;;;;;;;;;;5050796;28;20037;-58
2023/01/07 14:38:32;;;;;;;3.60;1.60;;;;;;;;;;5055461;28;20048;-58
2023/01/07 14:41:19;;;;;;;2.40;1.60;;;;;;;;;;5037647;28;20377;-58
2023/01/07 14:43:47;;;;;;;2.17;1.60;;;;;;;;;;5034587;28;20152;-57
2023/01/07 14:46:21;;;;;;;3.15;1.50;;;;;;;;;;5040664;28;20025;-60
2023/01/07 14:49:02;;;;;;;2.17;1.50;;;;;;;;;;5052705;28;20025;-58
2023/01/07 14:51:42;;;;;;;2.38;1.67;;;;;;;;;;5055068;28;20033;-60
2023/01/07 14:54:45;;;;;;;2.33;1.60;;;;;;;;;;5054798;28;20035;-59
2023/01/07 14:57:16;;;;;;;2.42;1.40;;;;;;;;;;5025189;28;20028;-57
2023/01/07 14:59:45;;;;;;;3.53;1.85;;;;;;;;;;5062147;28;20044;-59
2023/01/07 15:02:32;;;;;;;3.95;1.73;;;;;;;;;;5064089;28;20033;-57
2023/01/07 15:05:22;;;;;;;4.97;1.50;;;;;;;;;;5067106;28;20067;-57
2023/01/07 15:15:59;;;;;;;2.30;1.70;;;;;;;;;;5073236;28;20107;-58
2023/01/07 15:16:20;;;;;;;3.45;1.33;;;;;;;;;;5082385;28;20093;-57
2023/01/07 15:18:52;;;;;;;1.75;1.10;;;;;;;;;;5072374;28;20041;-57
2023/01/07 15:21:38;;;;;;;2.25;1.60;;;;;;;;;;5088365;28;20093;-52